Pompeys Pillar, MT

7:08 PM MDT on August 27, 2015 (GMT -0600)
MesoWest | | Change Station
CLOSE
Current Station
Personal Weather Station
Location: Huntley, MT
Elevation: 3000 ft
Nearby Weather Stations

Elev 3000 ft 45.92 °N, 108.25 °W | Updated 23 minutes ago

Overcast
Overcast
79 °F
Feels Like 79 °F
N
12
Wind Variable Wind from WSW
Gusts 0.0 mph

Today
High -- | Low -- °F
--% Chance of Precip.
Yesterday
High -- | Low -- °F
Precip. -- in
6:26 AM 7:59 PM
Waxing Gibbous, 96% visible
Pressure 29.95 in
Visibility 6.0 miles
Clouds Scattered Clouds 15000 ft
Overcast 22000 ft
Heat Index 79 °F
Dew Point 45 °F
Humidity 30%
Rainfall in
Snow Depth Not available.
UV 0 out of 12
Pollen 9.20 out of 12
Air Quality Not available.
Flu Activity Not available.
METAR KBIL 280053Z 24018G25KT 6SM HZ SCT150 OVC220 23/07 A3004 RMK AO2 PK WND 22028/2357 SLP141 HZ ALQDS CB SHRA DSNT SE-W T02330072
Pressure 29.95 in
Visibility 6.0 miles
Clouds Scattered Clouds 15000 ft
Overcast 22000 ft
Heat Index 79 °F
Dew Point 45 °F
Humidity 30%
Rainfall in
Snow Depth Not available.
UV 0 out of 12
Pollen 9.20 out of 12
Air Quality Not available.
Flu Activity Not available.
METAR KBIL 280053Z 24018G25KT 6SM HZ SCT150 OVC220 23/07 A3004 RMK AO2 PK WND 22028/2357 SLP141 HZ ALQDS CB SHRA DSNT SE-W T02330072

10-Day Weather Forecast

×

Almanac

Astronomy

Aug. 27, 2015 Rise Set
Actual Time
Civil Twilight
Nautical Twilight
Astronomical Twilight
Moon
Length of Visible Light
Length of Day
Tomorrow will be .
, % of the Moon is Illuminated

Today's Extremes

State Highs State Lows

Community

WunderPhotos

Upload Photos

1,850,288 photos uploaded!

WunderBlogs® & News

Nearby

Air Quality

  Air Quality AQ Index Pollutant
Not available.

Snow Depth

Station Depth Elevation

Earthquake Activity

City Distance Mag. Time & Date
Minimum magnitude displayed is 2.5.

Coastal Water Temperatures

Place Temperature

Stations

Nearby Weather Stations

Station Location Temp. Windchill Dew Point Humidity Wind Precip. Elev Updated Type